Kyle, United Kingdom
Current Conditions -  °F | °C
As of 8:20 PM on Monday 24 Nov 2014 (Local Time) from EGPL Reporting Station
Overcast Overcast  
Wind Chill: 43°   Ceiling: 4900
Heat Index: 48°   Visibility: 6mi
Dew Point: 39°   Wind: 13mph
Humidity: 71%   Direction: 280°W
Pressure: 30.18"   Gusts: NA
Location:  57.28°N, 5.72°W
Report Text: EGPL 242020Z AUTO 28011KT 9999 OVC049/// 09/04 Q1022
Loading
Personal Weather Stations






























Interactive Weather Map New forecast layout! Learn more

10-Day Weather Forecast

Advertisements
Track Severe Weather on mobile